sensor_id;sensor_type;location;lat;lon;timestamp;temperature;humidity
6540;DHT22;50344;51.142;16.892;2024-03-08T00:01:52;22.60;40.70
6540;DHT22;50344;51.142;16.892;2024-03-08T00:04:18;22.50;40.60
6540;DHT22;50344;51.142;16.892;2024-03-08T00:06:43;22.50;40.40
6540;DHT22;50344;51.142;16.892;2024-03-08T00:09:15;22.50;40.50
6540;DHT22;50344;51.142;16.892;2024-03-08T00:11:41;22.50;40.40
6540;DHT22;50344;51.142;16.892;2024-03-08T00:14:06;22.50;40.40
6540;DHT22;50344;51.142;16.892;2024-03-08T00:16:33;22.50;40.40
6540;DHT22;50344;51.142;16.892;2024-03-08T00:18:59;22.50;40.40
6540;DHT22;50344;51.142;16.892;2024-03-08T00:21:24;22.50;40.50
6540;DHT22;50344;51.142;16.892;2024-03-08T00:23:50;22.50;40.40
6540;DHT22;50344;51.142;16.892;2024-03-08T00:26:15;22.50;40.40
6540;DHT22;50344;51.142;16.892;2024-03-08T00:28:41;22.50;40.40
6540;DHT22;50344;51.142;16.892;2024-03-08T00:31:06;22.50;40.30
6540;DHT22;50344;51.142;16.892;2024-03-08T00:33:32;22.50;40.30
6540;DHT22;50344;51.142;16.892;2024-03-08T00:35:58;22.50;40.30
6540;DHT22;50344;51.142;16.892;2024-03-08T00:38:23;22.50;40.30
6540;DHT22;50344;51.142;16.892;2024-03-08T00:40:49;22.50;40.40
6540;DHT22;50344;51.142;16.892;2024-03-08T00:43:14;22.50;40.30
6540;DHT22;50344;51.142;16.892;2024-03-08T00:45:41;22.50;40.30
6540;DHT22;50344;51.142;16.892;2024-03-08T00:48:08;22.50;40.30
6540;DHT22;50344;51.142;16.892;2024-03-08T00:50:33;22.50;40.30
6540;DHT22;50344;51.142;16.892;2024-03-08T00:52:59;22.50;40.30
6540;DHT22;50344;51.142;16.892;2024-03-08T00:55:25;22.50;40.30
6540;DHT22;50344;51.142;16.892;2024-03-08T00:57:51;22.50;40.30
6540;DHT22;50344;51.142;16.892;2024-03-08T01:00:19;22.50;40.30
6540;DHT22;50344;51.142;16.892;2024-03-08T01:02:45;22.50;40.20
6540;DHT22;50344;51.142;16.892;2024-03-08T01:05:11;22.50;40.20
6540;DHT22;50344;51.142;16.892;2024-03-08T01:07:36;22.50;40.10
6540;DHT22;50344;51.142;16.892;2024-03-08T01:10:05;22.50;40.10
6540;DHT22;50344;51.142;16.892;2024-03-08T01:12:39;22.50;39.90
6540;DHT22;50344;51.142;16.892;2024-03-08T01:15:05;22.50;40.00
6540;DHT22;50344;51.142;16.892;2024-03-08T01:17:31;22.50;40.00
6540;DHT22;50344;51.142;16.892;2024-03-08T01:19:56;22.40;40.00
6540;DHT22;50344;51.142;16.892;2024-03-08T01:22:22;22.40;40.00
6540;DHT22;50344;51.142;16.892;2024-03-08T01:24:48;22.50;40.00
6540;DHT22;50344;51.142;16.892;2024-03-08T01:27:14;22.50;39.90
6540;DHT22;50344;51.142;16.892;2024-03-08T01:29:40;22.50;39.90
6540;DHT22;50344;51.142;16.892;2024-03-08T01:32:05;22.40;39.80
6540;DHT22;50344;51.142;16.892;2024-03-08T01:34:31;22.40;39.80
6540;DHT22;50344;51.142;16.892;2024-03-08T01:36:58;22.40;39.80
6540;DHT22;50344;51.142;16.892;2024-03-08T01:39:24;22.50;39.80
6540;DHT22;50344;51.142;16.892;2024-03-08T01:41:50;22.50;39.80
6540;DHT22;50344;51.142;16.892;2024-03-08T01:44:15;22.40;39.60
6540;DHT22;50344;51.142;16.892;2024-03-08T01:46:46;22.50;39.80
6540;DHT22;50344;51.142;16.892;2024-03-08T01:49:12;22.50;39.60
6540;DHT22;50344;51.142;16.892;2024-03-08T01:51:38;22.50;39.80
6540;DHT22;50344;51.142;16.892;2024-03-08T01:54:05;22.50;39.70
6540;DHT22;50344;51.142;16.892;2024-03-08T01:56:31;22.40;40.30
6540;DHT22;50344;51.142;16.892;2024-03-08T01:58:57;22.50;39.70
6540;DHT22;50344;51.142;16.892;2024-03-08T02:01:24;22.50;39.60
6540;DHT22;50344;51.142;16.892;2024-03-08T02:03:50;22.40;40.20
6540;DHT22;50344;51.142;16.892;2024-03-08T02:06:16;22.50;39.60
6540;DHT22;50344;51.142;16.892;2024-03-08T02:08:42;22.50;39.60
6540;DHT22;50344;51.142;16.892;2024-03-08T02:11:09;22.50;39.50
6540;DHT22;50344;51.142;16.892;2024-03-08T02:13:35;22.50;39.50
6540;DHT22;50344;51.142;16.892;2024-03-08T02:16:00;22.50;39.50
6540;DHT22;50344;51.142;16.892;2024-03-08T02:18:26;22.40;39.50
6540;DHT22;50344;51.142;16.892;2024-03-08T02:20:53;22.50;39.40
6540;DHT22;50344;51.142;16.892;2024-03-08T02:23:19;22.40;39.30
6540;DHT22;50344;51.142;16.892;2024-03-08T02:25:45;22.50;39.40
6540;DHT22;50344;51.142;16.892;2024-03-08T02:28:11;22.40;39.30
6540;DHT22;50344;51.142;16.892;2024-03-08T02:30:37;22.50;39.40
6540;DHT22;50344;51.142;16.892;2024-03-08T02:33:07;22.50;39.30
6540;DHT22;50344;51.142;16.892;2024-03-08T02:35:34;22.40;39.20
6540;DHT22;50344;51.142;16.892;2024-03-08T02:38:00;22.40;39.20
6540;DHT22;50344;51.142;16.892;2024-03-08T02:40:26;22.50;39.20
6540;DHT22;50344;51.142;16.892;2024-03-08T02:42:52;22.50;39.20
6540;DHT22;50344;51.142;16.892;2024-03-08T02:45:18;22.50;39.20
6540;DHT22;50344;51.142;16.892;2024-03-08T02:47:43;22.50;39.10
6540;DHT22;50344;51.142;16.892;2024-03-08T02:50:09;22.50;39.00
6540;DHT22;50344;51.142;16.892;2024-03-08T02:52:34;22.50;39.00
6540;DHT22;50344;51.142;16.892;2024-03-08T02:55:01;22.50;39.00
6540;DHT22;50344;51.142;16.892;2024-03-08T02:57:32;22.50;39.00
6540;DHT22;50344;51.142;16.892;2024-03-08T02:59:58;22.50;38.80
6540;DHT22;50344;51.142;16.892;2024-03-08T03:02:25;22.50;38.90
6540;DHT22;50344;51.142;16.892;2024-03-08T03:04:52;22.50;38.90
6540;DHT22;50344;51.142;16.892;2024-03-08T03:07:17;22.50;38.90
6540;DHT22;50344;51.142;16.892;2024-03-08T03:09:54;22.40;38.90
6540;DHT22;50344;51.142;16.892;2024-03-08T03:12:20;22.40;38.80
6540;DHT22;50344;51.142;16.892;2024-03-08T03:14:45;22.40;38.90
6540;DHT22;50344;51.142;16.892;2024-03-08T03:17:11;22.40;38.90
6540;DHT22;50344;51.142;16.892;2024-03-08T03:19:36;22.40;38.70
6540;DHT22;50344;51.142;16.892;2024-03-08T03:22:02;22.40;38.70
6540;DHT22;50344;51.142;16.892;2024-03-08T03:24:28;22.40;38.70
6540;DHT22;50344;51.142;16.892;2024-03-08T03:26:54;22.40;38.70
6540;DHT22;50344;51.142;16.892;2024-03-08T03:29:20;22.40;38.80
6540;DHT22;50344;51.142;16.892;2024-03-08T03:32:02;22.40;38.70
6540;DHT22;50344;51.142;16.892;2024-03-08T03:37:18;22.40;38.70
6540;DHT22;50344;51.142;16.892;2024-03-08T03:39:45;22.40;38.80
6540;DHT22;50344;51.142;16.892;2024-03-08T03:42:14;22.40;38.80
6540;DHT22;50344;51.142;16.892;2024-03-08T03:44:40;22.30;38.70
6540;DHT22;50344;51.142;16.892;2024-03-08T03:47:06;22.40;38.90
6540;DHT22;50344;51.142;16.892;2024-03-08T03:49:35;22.30;39.50
6540;DHT22;50344;51.142;16.892;2024-03-08T03:52:10;22.30;38.70
6540;DHT22;50344;51.142;16.892;2024-03-08T03:54:35;22.40;38.80
6540;DHT22;50344;51.142;16.892;2024-03-08T03:57:01;22.30;38.80
6540;DHT22;50344;51.142;16.892;2024-03-08T03:59:36;22.30;38.90
6540;DHT22;50344;51.142;16.892;2024-03-08T04:04:47;22.30;38.80
6540;DHT22;50344;51.142;16.892;2024-03-08T04:07:13;22.30;38.80
6540;DHT22;50344;51.142;16.892;2024-03-08T04:25:00;22.30;38.60
6540;DHT22;50344;51.142;16.892;2024-03-08T04:27:26;21.90;38.30
6540;DHT22;50344;51.142;16.892;2024-03-08T04:33:00;22.40;38.50
6540;DHT22;50344;51.142;16.892;2024-03-08T04:38:15;22.30;38.40
6540;DHT22;50344;51.142;16.892;2024-03-08T04:40:41;22.30;38.50
6540;DHT22;50344;51.142;16.892;2024-03-08T04:46:02;22.30;38.30
6540;DHT22;50344;51.142;16.892;2024-03-08T04:48:29;22.30;38.40
6540;DHT22;50344;51.142;16.892;2024-03-08T04:50:54;22.30;38.40
6540;DHT22;50344;51.142;16.892;2024-03-08T04:59:30;22.30;38.10
6540;DHT22;50344;51.142;16.892;2024-03-08T05:01:56;22.30;38.10
6540;DHT22;50344;51.142;16.892;2024-03-08T05:04:21;22.30;38.10
6540;DHT22;50344;51.142;16.892;2024-03-08T05:06:55;22.30;37.90
6540;DHT22;50344;51.142;16.892;2024-03-08T05:09:20;22.30;37.80
6540;DHT22;50344;51.142;16.892;2024-03-08T05:11:46;22.30;38.10
6540;DHT22;50344;51.142;16.892;2024-03-08T05:14:12;22.30;38.20
6540;DHT22;50344;51.142;16.892;2024-03-08T05:16:44;22.30;38.20
6540;DHT22;50344;51.142;16.892;2024-03-08T05:19:30;22.30;38.20
6540;DHT22;50344;51.142;16.892;2024-03-08T05:21:56;22.70;38.90
6540;DHT22;50344;51.142;16.892;2024-03-08T05:24:21;22.30;38.80
6540;DHT22;50344;51.142;16.892;2024-03-08T05:27:02;22.30;38.90
6540;DHT22;50344;51.142;16.892;2024-03-08T05:29:29;22.30;38.80
6540;DHT22;50344;51.142;16.892;2024-03-08T05:31:54;22.30;38.80
6540;DHT22;50344;51.142;16.892;2024-03-08T05:34:20;22.30;38.90
6540;DHT22;50344;51.142;16.892;2024-03-08T05:36:50;22.30;38.90
6540;DHT22;50344;51.142;16.892;2024-03-08T05:39:16;22.30;38.80
6540;DHT22;50344;51.142;16.892;2024-03-08T05:41:42;22.30;39.00
6540;DHT22;50344;51.142;16.892;2024-03-08T05:44:08;22.30;39.00
6540;DHT22;50344;51.142;16.892;2024-03-08T05:46:34;22.30;39.00
6540;DHT22;50344;51.142;16.892;2024-03-08T05:49:01;22.30;38.90
6540;DHT22;50344;51.142;16.892;2024-03-08T05:51:31;22.30;39.00
6540;DHT22;50344;51.142;16.892;2024-03-08T05:53:56;22.30;39.10
6540;DHT22;50344;51.142;16.892;2024-03-08T05:56:22;22.20;39.30
6540;DHT22;50344;51.142;16.892;2024-03-08T05:58:50;22.30;39.30
6540;DHT22;50344;51.142;16.892;2024-03-08T06:01:16;22.30;39.50
6540;DHT22;50344;51.142;16.892;2024-03-08T06:03:41;22.30;39.40
6540;DHT22;50344;51.142;16.892;2024-03-08T06:06:12;22.30;39.90
6540;DHT22;50344;51.142;16.892;2024-03-08T06:08:37;22.30;39.90
6540;DHT22;50344;51.142;16.892;2024-03-08T06:13:52;22.20;40.00
6540;DHT22;50344;51.142;16.892;2024-03-08T06:16:20;22.30;40.20
6540;DHT22;50344;51.142;16.892;2024-03-08T06:18:46;22.60;40.90
6540;DHT22;50344;51.142;16.892;2024-03-08T06:21:12;22.30;40.50
6540;DHT22;50344;51.142;16.892;2024-03-08T06:23:37;22.30;40.50
6540;DHT22;50344;51.142;16.892;2024-03-08T06:26:05;22.30;40.60
6540;DHT22;50344;51.142;16.892;2024-03-08T06:28:31;22.40;41.20
6540;DHT22;50344;51.142;16.892;2024-03-08T06:31:05;22.30;41.20
6540;DHT22;50344;51.142;16.892;2024-03-08T06:33:32;22.30;41.30
6540;DHT22;50344;51.142;16.892;2024-03-08T06:35:57;22.20;41.50
6540;DHT22;50344;51.142;16.892;2024-03-08T06:38:23;22.20;41.70
6540;DHT22;50344;51.142;16.892;2024-03-08T06:40:49;22.30;41.80
6540;DHT22;50344;51.142;16.892;2024-03-08T06:43:16;22.30;42.10
6540;DHT22;50344;51.142;16.892;2024-03-08T06:45:43;22.30;41.90
6540;DHT22;50344;51.142;16.892;2024-03-08T06:48:16;22.30;42.10
6540;DHT22;50344;51.142;16.892;2024-03-08T06:50:43;22.40;41.90
6540;DHT22;50344;51.142;16.892;2024-03-08T06:53:09;22.40;42.10
6540;DHT22;50344;51.142;16.892;2024-03-08T06:55:34;22.40;42.00
6540;DHT22;50344;51.142;16.892;2024-03-08T06:58:00;22.40;41.90
6540;DHT22;50344;51.142;16.892;2024-03-08T07:00:41;22.70;42.10
6540;DHT22;50344;51.142;16.892;2024-03-08T07:03:13;22.40;41.70
6540;DHT22;50344;51.142;16.892;2024-03-08T07:05:42;22.50;41.50
6540;DHT22;50344;51.142;16.892;2024-03-08T07:08:08;22.50;41.60
6540;DHT22;50344;51.142;16.892;2024-03-08T07:10:33;22.50;41.60
6540;DHT22;50344;51.142;16.892;2024-03-08T07:13:00;22.40;41.60
6540;DHT22;50344;51.142;16.892;2024-03-08T07:15:27;22.40;41.60
6540;DHT22;50344;51.142;16.892;2024-03-08T07:17:53;22.40;41.50
6540;DHT22;50344;51.142;16.892;2024-03-08T07:20:19;22.50;41.40
6540;DHT22;50344;51.142;16.892;2024-03-08T07:22:45;22.50;41.30
6540;DHT22;50344;51.142;16.892;2024-03-08T07:25:16;22.40;41.20
6540;DHT22;50344;51.142;16.892;2024-03-08T07:27:46;22.40;41.10
6540;DHT22;50344;51.142;16.892;2024-03-08T07:30:12;22.40;41.00
6540;DHT22;50344;51.142;16.892;2024-03-08T07:32:38;22.40;41.00
6540;DHT22;50344;51.142;16.892;2024-03-08T07:35:03;22.40;41.00
6540;DHT22;50344;51.142;16.892;2024-03-08T07:37:29;22.40;40.90
6540;DHT22;50344;51.142;16.892;2024-03-08T07:39:54;22.40;40.90
6540;DHT22;50344;51.142;16.892;2024-03-08T07:42:20;22.40;40.80
6540;DHT22;50344;51.142;16.892;2024-03-08T07:44:47;22.40;40.70
6540;DHT22;50344;51.142;16.892;2024-03-08T07:47:13;22.40;40.60
6540;DHT22;50344;51.142;16.892;2024-03-08T07:49:39;22.50;40.50
6540;DHT22;50344;51.142;16.892;2024-03-08T07:52:04;22.50;40.30
6540;DHT22;50344;51.142;16.892;2024-03-08T07:54:32;22.10;39.90
6540;DHT22;50344;51.142;16.892;2024-03-08T07:56:58;22.50;40.10
6540;DHT22;50344;51.142;16.892;2024-03-08T07:59:23;22.50;39.90
6540;DHT22;50344;51.142;16.892;2024-03-08T08:01:49;22.50;39.80
6540;DHT22;50344;51.142;16.892;2024-03-08T08:04:15;22.50;39.70
6540;DHT22;50344;51.142;16.892;2024-03-08T08:06:43;22.60;39.80
6540;DHT22;50344;51.142;16.892;2024-03-08T08:09:09;22.60;39.60
6540;DHT22;50344;51.142;16.892;2024-03-08T08:11:43;22.70;39.50
6540;DHT22;50344;51.142;16.892;2024-03-08T08:14:09;22.70;39.20
6540;DHT22;50344;51.142;16.892;2024-03-08T08:16:35;22.70;39.10
6540;DHT22;50344;51.142;16.892;2024-03-08T08:19:02;22.80;39.10
6540;DHT22;50344;51.142;16.892;2024-03-08T08:21:35;22.70;39.00
6540;DHT22;50344;51.142;16.892;2024-03-08T08:24:04;22.80;38.90
6540;DHT22;50344;51.142;16.892;2024-03-08T08:26:29;22.80;38.80
6540;DHT22;50344;51.142;16.892;2024-03-08T08:28:55;22.80;38.70
6540;DHT22;50344;51.142;16.892;2024-03-08T08:31:21;22.70;38.40
6540;DHT22;50344;51.142;16.892;2024-03-08T08:33:46;22.80;38.50
6540;DHT22;50344;51.142;16.892;2024-03-08T08:36:13;22.70;38.50
6540;DHT22;50344;51.142;16.892;2024-03-08T08:38:39;22.80;38.50
6540;DHT22;50344;51.142;16.892;2024-03-08T08:41:04;22.80;38.50
6540;DHT22;50344;51.142;16.892;2024-03-08T08:43:31;22.80;38.40
6540;DHT22;50344;51.142;16.892;2024-03-08T08:45:58;22.80;38.30
6540;DHT22;50344;51.142;16.892;2024-03-08T08:48:24;22.80;38.40
6540;DHT22;50344;51.142;16.892;2024-03-08T08:50:50;22.80;38.30
6540;DHT22;50344;51.142;16.892;2024-03-08T08:53:17;22.90;38.30
6540;DHT22;50344;51.142;16.892;2024-03-08T08:55:43;22.90;38.30
6540;DHT22;50344;51.142;16.892;2024-03-08T08:58:11;22.90;38.30
6540;DHT22;50344;51.142;16.892;2024-03-08T09:00:36;22.90;38.30
6540;DHT22;50344;51.142;16.892;2024-03-08T09:03:02;22.90;38.20
6540;DHT22;50344;51.142;16.892;2024-03-08T09:05:27;22.90;38.20
6540;DHT22;50344;51.142;16.892;2024-03-08T09:07:53;22.90;38.20
6540;DHT22;50344;51.142;16.892;2024-03-08T09:10:18;22.90;38.20
6540;DHT22;50344;51.142;16.892;2024-03-08T09:12:44;22.90;38.20
6540;DHT22;50344;51.142;16.892;2024-03-08T09:15:10;23.00;38.30
6540;DHT22;50344;51.142;16.892;2024-03-08T09:17:39;22.90;37.90
6540;DHT22;50344;51.142;16.892;2024-03-08T09:20:10;23.00;38.00
6540;DHT22;50344;51.142;16.892;2024-03-08T09:22:35;23.00;37.70
6540;DHT22;50344;51.142;16.892;2024-03-08T09:25:01;23.00;37.70
6540;DHT22;50344;51.142;16.892;2024-03-08T09:27:27;23.00;37.70
6540;DHT22;50344;51.142;16.892;2024-03-08T09:29:53;23.00;37.60
6540;DHT22;50344;51.142;16.892;2024-03-08T09:32:19;23.10;37.70
6540;DHT22;50344;51.142;16.892;2024-03-08T09:34:44;23.10;37.70
6540;DHT22;50344;51.142;16.892;2024-03-08T09:37:10;23.10;37.70
6540;DHT22;50344;51.142;16.892;2024-03-08T09:39:35;23.10;37.60
6540;DHT22;50344;51.142;16.892;2024-03-08T09:42:01;23.10;37.60
6540;DHT22;50344;51.142;16.892;2024-03-08T09:44:27;23.10;37.50
6540;DHT22;50344;51.142;16.892;2024-03-08T09:46:54;23.10;37.50
6540;DHT22;50344;51.142;16.892;2024-03-08T09:49:20;23.20;37.50
6540;DHT22;50344;51.142;16.892;2024-03-08T09:51:46;23.20;37.50
6540;DHT22;50344;51.142;16.892;2024-03-08T09:54:12;23.20;37.70
6540;DHT22;50344;51.142;16.892;2024-03-08T09:56:38;23.20;37.60
6540;DHT22;50344;51.142;16.892;2024-03-08T09:59:06;23.30;37.60
6540;DHT22;50344;51.142;16.892;2024-03-08T10:01:51;23.30;37.40
6540;DHT22;50344;51.142;16.892;2024-03-08T10:04:17;23.40;37.30
6540;DHT22;50344;51.142;16.892;2024-03-08T10:06:43;23.40;37.40
6540;DHT22;50344;51.142;16.892;2024-03-08T10:09:09;23.30;37.40
6540;DHT22;50344;51.142;16.892;2024-03-08T10:11:35;23.40;37.30
6540;DHT22;50344;51.142;16.892;2024-03-08T10:14:01;23.40;37.40
6540;DHT22;50344;51.142;16.892;2024-03-08T10:16:30;23.40;37.40
6540;DHT22;50344;51.142;16.892;2024-03-08T10:18:58;23.40;37.30
6540;DHT22;50344;51.142;16.892;2024-03-08T10:21:25;23.50;37.30
6540;DHT22;50344;51.142;16.892;2024-03-08T10:23:51;23.50;37.20
6540;DHT22;50344;51.142;16.892;2024-03-08T10:26:17;24.10;37.60
6540;DHT22;50344;51.142;16.892;2024-03-08T10:28:44;23.60;37.30
6540;DHT22;50344;51.142;16.892;2024-03-08T10:31:10;23.70;37.10
6540;DHT22;50344;51.142;16.892;2024-03-08T10:33:36;23.70;37.00
6540;DHT22;50344;51.142;16.892;2024-03-08T10:36:03;23.80;37.70
6540;DHT22;50344;51.142;16.892;2024-03-08T10:38:30;23.80;36.90
6540;DHT22;50344;51.142;16.892;2024-03-08T10:40:58;23.90;36.90
6540;DHT22;50344;51.142;16.892;2024-03-08T10:43:24;23.90;36.70
6540;DHT22;50344;51.142;16.892;2024-03-08T10:45:53;23.90;36.90
6540;DHT22;50344;51.142;16.892;2024-03-08T10:48:30;23.90;36.70
6540;DHT22;50344;51.142;16.892;2024-03-08T10:50:57;23.90;36.60
6540;DHT22;50344;51.142;16.892;2024-03-08T10:53:23;24.00;36.90
6540;DHT22;50344;51.142;16.892;2024-03-08T10:55:49;24.00;37.00
6540;DHT22;50344;51.142;16.892;2024-03-08T10:58:19;24.00;37.00
6540;DHT22;50344;51.142;16.892;2024-03-08T11:00:45;24.00;36.90
6540;DHT22;50344;51.142;16.892;2024-03-08T11:05:55;23.90;36.80
6540;DHT22;50344;51.142;16.892;2024-03-08T11:08:20;23.90;37.00
6540;DHT22;50344;51.142;16.892;2024-03-08T11:10:46;23.90;37.00
6540;DHT22;50344;51.142;16.892;2024-03-08T11:15:56;23.90;36.90
6540;DHT22;50344;51.142;16.892;2024-03-08T11:18:22;24.00;36.80
6540;DHT22;50344;51.142;16.892;2024-03-08T11:20:48;24.00;36.90
6540;DHT22;50344;51.142;16.892;2024-03-08T11:23:16;24.10;36.90
6540;DHT22;50344;51.142;16.892;2024-03-08T11:25:48;24.10;36.70
6540;DHT22;50344;51.142;16.892;2024-03-08T11:28:19;24.10;36.70
6540;DHT22;50344;51.142;16.892;2024-03-08T11:33:16;24.20;36.10
6540;DHT22;50344;51.142;16.892;2024-03-08T11:35:42;24.30;35.80
6540;DHT22;50344;51.142;16.892;2024-03-08T11:38:10;24.40;35.70
6540;DHT22;50344;51.142;16.892;2024-03-08T11:40:35;24.40;35.60
6540;DHT22;50344;51.142;16.892;2024-03-08T11:43:01;24.40;35.40
6540;DHT22;50344;51.142;16.892;2024-03-08T11:45:33;24.40;35.60
6540;DHT22;50344;51.142;16.892;2024-03-08T11:48:02;24.40;35.20
6540;DHT22;50344;51.142;16.892;2024-03-08T11:50:29;24.50;35.10
6540;DHT22;50344;51.142;16.892;2024-03-08T11:52:59;24.50;35.10
6540;DHT22;50344;51.142;16.892;2024-03-08T11:55:25;24.50;35.10
6540;DHT22;50344;51.142;16.892;2024-03-08T11:57:58;24.50;35.10
6540;DHT22;50344;51.142;16.892;2024-03-08T12:00:24;24.40;35.00
6540;DHT22;50344;51.142;16.892;2024-03-08T12:03:04;24.50;35.20
6540;DHT22;50344;51.142;16.892;2024-03-08T12:05:30;24.50;34.60
6540;DHT22;50344;51.142;16.892;2024-03-08T12:07:57;24.50;35.00
6540;DHT22;50344;51.142;16.892;2024-03-08T12:10:23;24.50;34.70
6540;DHT22;50344;51.142;16.892;2024-03-08T12:12:53;24.50;35.00
6540;DHT22;50344;51.142;16.892;2024-03-08T12:15:19;24.40;35.20
6540;DHT22;50344;51.142;16.892;2024-03-08T12:17:47;24.40;35.00
6540;DHT22;50344;51.142;16.892;2024-03-08T12:20:20;24.40;35.00
6540;DHT22;50344;51.142;16.892;2024-03-08T12:22:50;24.40;35.10
6540;DHT22;50344;51.142;16.892;2024-03-08T12:25:22;24.40;35.00
6540;DHT22;50344;51.142;16.892;2024-03-08T12:27:47;24.30;35.10
6540;DHT22;50344;51.142;16.892;2024-03-08T12:30:23;24.30;35.00
6540;DHT22;50344;51.142;16.892;2024-03-08T12:32:53;24.30;34.90
6540;DHT22;50344;51.142;16.892;2024-03-08T12:35:22;24.30;35.00
6540;DHT22;50344;51.142;16.892;2024-03-08T12:37:49;24.50;34.60
6540;DHT22;50344;51.142;16.892;2024-03-08T12:40:16;24.40;34.60
6540;DHT22;50344;51.142;16.892;2024-03-08T12:42:45;24.50;34.60
6540;DHT22;50344;51.142;16.892;2024-03-08T12:45:13;24.60;35.10
6540;DHT22;50344;51.142;16.892;2024-03-08T12:47:38;24.60;33.80
6540;DHT22;50344;51.142;16.892;2024-03-08T12:50:07;24.60;33.10
6540;DHT22;50344;51.142;16.892;2024-03-08T12:52:34;24.60;32.60
6540;DHT22;50344;51.142;16.892;2024-03-08T12:54:59;24.60;32.40
6540;DHT22;50344;51.142;16.892;2024-03-08T12:57:32;24.60;31.80
6540;DHT22;50344;51.142;16.892;2024-03-08T12:59:59;24.50;31.90
6540;DHT22;50344;51.142;16.892;2024-03-08T13:02:25;24.50;31.90
6540;DHT22;50344;51.142;16.892;2024-03-08T13:04:51;24.40;32.50
6540;DHT22;50344;51.142;16.892;2024-03-08T13:07:25;24.40;31.10
6540;DHT22;50344;51.142;16.892;2024-03-08T13:09:54;24.40;30.70
6540;DHT22;50344;51.142;16.892;2024-03-08T13:12:23;24.30;31.70
6540;DHT22;50344;51.142;16.892;2024-03-08T13:14:49;24.30;32.20
6540;DHT22;50344;51.142;16.892;2024-03-08T13:17:15;24.30;31.90
6540;DHT22;50344;51.142;16.892;2024-03-08T13:19:40;24.20;31.70
6540;DHT22;50344;51.142;16.892;2024-03-08T13:22:08;24.10;31.90
6540;DHT22;50344;51.142;16.892;2024-03-08T13:24:38;24.10;31.40
6540;DHT22;50344;51.142;16.892;2024-03-08T13:27:06;24.10;32.00
6540;DHT22;50344;51.142;16.892;2024-03-08T13:29:42;24.00;31.30
6540;DHT22;50344;51.142;16.892;2024-03-08T13:32:08;24.00;29.70
6540;DHT22;50344;51.142;16.892;2024-03-08T13:34:37;24.00;30.90
6540;DHT22;50344;51.142;16.892;2024-03-08T13:37:03;24.00;29.50
6540;DHT22;50344;51.142;16.892;2024-03-08T13:39:31;24.00;28.90
6540;DHT22;50344;51.142;16.892;2024-03-08T13:42:09;24.00;28.30
6540;DHT22;50344;51.142;16.892;2024-03-08T13:44:47;24.00;29.90
6540;DHT22;50344;51.142;16.892;2024-03-08T13:47:13;24.00;29.30
6540;DHT22;50344;51.142;16.892;2024-03-08T13:49:39;23.90;28.20
6540;DHT22;50344;51.142;16.892;2024-03-08T13:52:05;24.30;28.50
6540;DHT22;50344;51.142;16.892;2024-03-08T13:54:30;23.90;28.30
6540;DHT22;50344;51.142;16.892;2024-03-08T13:56:57;23.90;27.80
6540;DHT22;50344;51.142;16.892;2024-03-08T13:59:22;23.90;27.20
6540;DHT22;50344;51.142;16.892;2024-03-08T14:01:48;23.90;26.70
6540;DHT22;50344;51.142;16.892;2024-03-08T14:04:16;23.90;26.60
6540;DHT22;50344;51.142;16.892;2024-03-08T14:06:44;23.80;26.30
6540;DHT22;50344;51.142;16.892;2024-03-08T14:09:13;23.90;26.20
6540;DHT22;50344;51.142;16.892;2024-03-08T14:11:45;23.90;26.10
6540;DHT22;50344;51.142;16.892;2024-03-08T14:14:10;23.90;25.30
6540;DHT22;50344;51.142;16.892;2024-03-08T14:16:40;23.80;25.80
6540;DHT22;50344;51.142;16.892;2024-03-08T14:19:06;23.80;25.70
6540;DHT22;50344;51.142;16.892;2024-03-08T14:21:32;23.80;25.50
6540;DHT22;50344;51.142;16.892;2024-03-08T14:23:57;23.80;24.70
6540;DHT22;50344;51.142;16.892;2024-03-08T14:26:23;23.80;25.20
6540;DHT22;50344;51.142;16.892;2024-03-08T14:28:48;23.70;25.20
6540;DHT22;50344;51.142;16.892;2024-03-08T14:31:17;23.80;26.10
6540;DHT22;50344;51.142;16.892;2024-03-08T14:33:46;23.70;25.20
6540;DHT22;50344;51.142;16.892;2024-03-08T14:36:14;23.80;23.30
6540;DHT22;50344;51.142;16.892;2024-03-08T14:38:42;23.70;24.20
6540;DHT22;50344;51.142;16.892;2024-03-08T14:41:08;23.80;23.10
6540;DHT22;50344;51.142;16.892;2024-03-08T14:43:33;23.70;23.30
6540;DHT22;50344;51.142;16.892;2024-03-08T14:45:59;23.70;23.10
6540;DHT22;50344;51.142;16.892;2024-03-08T14:48:24;23.70;23.20
6540;DHT22;50344;51.142;16.892;2024-03-08T14:50:50;23.70;23.70
6540;DHT22;50344;51.142;16.892;2024-03-08T14:53:16;23.60;24.90
6540;DHT22;50344;51.142;16.892;2024-03-08T14:55:42;23.60;24.60
6540;DHT22;50344;51.142;16.892;2024-03-08T14:58:08;23.50;24.00
6540;DHT22;50344;51.142;16.892;2024-03-08T15:00:34;23.40;23.40
6540;DHT22;50344;51.142;16.892;2024-03-08T15:03:00;23.50;24.30
6540;DHT22;50344;51.142;16.892;2024-03-08T15:05:30;23.50;24.70
6540;DHT22;50344;51.142;16.892;2024-03-08T15:07:57;23.50;23.80
6540;DHT22;50344;51.142;16.892;2024-03-08T15:10:25;23.40;19.70
6540;DHT22;50344;51.142;16.892;2024-03-08T15:12:51;23.30;18.70
6540;DHT22;50344;51.142;16.892;2024-03-08T15:15:21;23.20;18.40
6540;DHT22;50344;51.142;16.892;2024-03-08T15:17:48;23.20;20.20
6540;DHT22;50344;51.142;16.892;2024-03-08T15:20:13;23.10;21.20
6540;DHT22;50344;51.142;16.892;2024-03-08T15:22:49;23.00;21.60
6540;DHT22;50344;51.142;16.892;2024-03-08T15:25:15;23.00;19.70
6540;DHT22;50344;51.142;16.892;2024-03-08T15:27:46;23.00;20.20
6540;DHT22;50344;51.142;16.892;2024-03-08T15:30:12;23.30;22.10
6540;DHT22;50344;51.142;16.892;2024-03-08T15:32:39;22.90;22.80
6540;DHT22;50344;51.142;16.892;2024-03-08T15:35:04;23.00;22.40
6540;DHT22;50344;51.142;16.892;2024-03-08T15:37:30;23.10;23.00
6540;DHT22;50344;51.142;16.892;2024-03-08T15:39:55;23.10;23.40
6540;DHT22;50344;51.142;16.892;2024-03-08T15:42:21;23.10;23.90
6540;DHT22;50344;51.142;16.892;2024-03-08T15:44:48;23.10;24.00
6540;DHT22;50344;51.142;16.892;2024-03-08T15:47:13;23.00;23.90
6540;DHT22;50344;51.142;16.892;2024-03-08T15:49:40;23.00;24.00
6540;DHT22;50344;51.142;16.892;2024-03-08T15:52:06;23.10;24.70
6540;DHT22;50344;51.142;16.892;2024-03-08T15:54:31;23.10;24.90
6540;DHT22;50344;51.142;16.892;2024-03-08T15:56:57;23.10;25.00
6540;DHT22;50344;51.142;16.892;2024-03-08T15:59:23;23.10;24.80
6540;DHT22;50344;51.142;16.892;2024-03-08T16:01:48;23.10;26.00
6540;DHT22;50344;51.142;16.892;2024-03-08T16:04:16;23.00;25.50
6540;DHT22;50344;51.142;16.892;2024-03-08T16:06:41;22.90;25.30
6540;DHT22;50344;51.142;16.892;2024-03-08T16:09:07;23.00;26.10
6540;DHT22;50344;51.142;16.892;2024-03-08T16:11:38;22.90;25.40
6540;DHT22;50344;51.142;16.892;2024-03-08T16:14:04;22.90;24.60
6540;DHT22;50344;51.142;16.892;2024-03-08T16:16:30;22.90;25.10